createdAt,value
2023-03-07T00:00:35.197Z,977.73
2023-03-07T00:01:35.212Z,977.73
2023-03-07T00:02:35.237Z,977.71
2023-03-07T00:03:35.194Z,977.75
2023-03-07T00:04:35.185Z,977.79
2023-03-07T00:05:35.168Z,977.72
2023-03-07T00:06:35.160Z,977.72
2023-03-07T00:07:35.146Z,977.72
2023-03-07T00:08:35.149Z,977.70
2023-03-07T00:09:35.150Z,977.73
2023-03-07T00:10:35.784Z,977.65
2023-03-07T00:11:35.140Z,977.69
2023-03-07T00:12:35.117Z,977.70
2023-03-07T00:13:35.103Z,977.72
2023-03-07T00:14:35.098Z,977.70
2023-03-07T00:15:35.092Z,977.70
2023-03-07T00:16:35.079Z,977.69
2023-03-07T00:17:35.113Z,977.70
2023-03-07T00:18:35.067Z,977.74
2023-03-07T00:19:35.054Z,977.68
2023-03-07T00:20:35.040Z,977.71
2023-03-07T00:21:36.797Z,977.63
2023-03-07T00:22:35.041Z,977.66
2023-03-07T00:24:34.982Z,977.65
2023-03-07T00:25:34.953Z,977.60
2023-03-07T00:26:34.947Z,977.58
2023-03-07T00:27:34.942Z,977.60
2023-03-07T00:28:34.933Z,977.59
2023-03-07T00:29:34.933Z,977.61
2023-03-07T00:30:34.918Z,977.62
2023-03-07T00:31:34.987Z,977.55
2023-03-07T00:32:34.965Z,977.55
2023-03-07T00:33:34.888Z,977.53
2023-03-07T00:34:34.890Z,977.58
2023-03-07T00:35:34.904Z,977.57
2023-03-07T00:36:34.875Z,977.54
2023-03-07T00:37:34.866Z,977.54
2023-03-07T00:38:34.848Z,977.51
2023-03-07T00:39:35.951Z,977.53
2023-03-07T00:40:35.950Z,977.48
2023-03-07T00:41:35.936Z,977.48
2023-03-07T00:42:35.936Z,977.45
2023-03-07T00:43:35.906Z,977.44
2023-03-07T00:44:36.898Z,977.43
2023-03-07T00:45:35.915Z,977.43
2023-03-07T00:46:35.894Z,977.40
2023-03-07T00:47:35.889Z,977.43
2023-03-07T00:48:35.867Z,977.51
2023-03-07T00:49:35.873Z,977.48
2023-03-07T00:50:35.871Z,977.43
2023-03-07T00:51:35.860Z,977.39
2023-03-07T00:52:35.845Z,977.43
2023-03-07T00:53:35.826Z,977.42
2023-03-07T00:54:35.827Z,977.46
2023-03-07T00:55:35.819Z,977.40
2023-03-07T00:56:35.818Z,977.44
2023-03-07T00:57:36.406Z,977.41
2023-03-07T00:58:35.798Z,977.41
2023-03-07T00:59:35.807Z,977.38
2023-03-07T01:00:35.870Z,977.36
2023-03-07T01:01:35.785Z,977.29
2023-03-07T01:02:35.757Z,977.28
2023-03-07T01:03:35.759Z,977.30
2023-03-07T01:04:35.848Z,977.21
2023-03-07T01:05:35.744Z,977.22
2023-03-07T01:06:35.724Z,977.19
2023-03-07T01:07:35.723Z,977.15
2023-03-07T01:08:35.705Z,977.17
2023-03-07T01:09:35.704Z,977.16
2023-03-07T01:10:35.689Z,977.17
2023-03-07T01:11:36.688Z,977.16
2023-03-07T01:12:36.335Z,977.13
2023-03-07T01:13:35.681Z,977.14
2023-03-07T01:14:35.667Z,977.11
2023-03-07T01:15:36.405Z,977.13
2023-03-07T01:16:35.689Z,977.13
2023-03-07T01:17:35.654Z,977.10
2023-03-07T01:18:35.840Z,977.01
2023-03-07T01:19:35.630Z,976.94
2023-03-07T01:20:35.616Z,977.05
2023-03-07T01:21:35.626Z,976.98
2023-03-07T01:22:35.598Z,976.97
2023-03-07T01:23:35.603Z,977.00
2023-03-07T01:24:35.629Z,976.98
2023-03-07T01:25:35.578Z,976.94
2023-03-07T01:26:35.581Z,976.85
2023-03-07T01:27:35.559Z,976.84
2023-03-07T01:28:35.560Z,976.83
2023-03-07T01:29:35.568Z,976.82
2023-03-07T01:30:35.542Z,976.78
2023-03-07T01:31:35.573Z,976.82
2023-03-07T01:32:35.522Z,976.76
2023-03-07T01:33:35.522Z,976.81
2023-03-07T01:34:35.501Z,976.78
2023-03-07T01:35:35.531Z,976.78
2023-03-07T01:36:35.578Z,976.76
2023-03-07T01:37:35.491Z,976.66
2023-03-07T01:38:35.477Z,976.71
2023-03-07T01:39:35.464Z,976.64
2023-03-07T01:40:35.459Z,976.62
2023-03-07T01:41:35.455Z,976.67
2023-03-07T01:42:35.453Z,976.61
2023-03-07T01:43:35.452Z,976.57
2023-03-07T01:44:35.437Z,976.59
2023-03-07T01:45:35.477Z,976.46
2023-03-07T01:46:35.421Z,976.42
2023-03-07T01:47:35.402Z,976.41
2023-03-07T01:48:35.396Z,976.38
2023-03-07T01:49:35.486Z,976.33
2023-03-07T01:50:35.388Z,976.33
2023-03-07T01:51:35.373Z,976.33
2023-03-07T01:52:35.434Z,976.33
2023-03-07T01:53:35.353Z,976.33
2023-03-07T01:54:35.340Z,976.37
2023-03-07T01:55:35.346Z,976.32
2023-03-07T01:56:35.327Z,976.29
2023-03-07T01:57:35.334Z,976.26
2023-03-07T01:58:35.311Z,976.24
2023-03-07T01:59:37.306Z,976.23
2023-03-07T02:00:35.311Z,976.15
2023-03-07T02:01:35.343Z,976.12
2023-03-07T02:02:35.312Z,976.16
2023-03-07T02:03:35.272Z,976.14
2023-03-07T02:04:35.354Z,976.16
2023-03-07T02:05:35.265Z,976.12
2023-03-07T02:06:35.256Z,976.07
2023-03-07T02:07:35.267Z,976.03
2023-03-07T02:08:35.240Z,976.02
2023-03-07T02:09:35.226Z,975.97
2023-03-07T02:10:35.263Z,976.03
2023-03-07T02:11:35.216Z,976.08
2023-03-07T02:12:35.221Z,976.06
2023-03-07T02:13:35.204Z,975.93
2023-03-07T02:14:35.190Z,975.99
2023-03-07T02:15:35.241Z,976.01
2023-03-07T02:16:35.172Z,975.99
2023-03-07T02:17:35.168Z,975.99
2023-03-07T02:18:35.163Z,975.97
2023-03-07T02:19:35.142Z,975.93
2023-03-07T02:20:35.152Z,975.92
2023-03-07T02:21:35.134Z,975.90
2023-03-07T02:22:35.138Z,975.92
2023-03-07T02:23:35.939Z,975.88
2023-03-07T02:24:35.106Z,975.87
2023-03-07T02:25:35.111Z,975.86
2023-03-07T02:26:35.108Z,975.92
2023-03-07T02:27:35.091Z,975.81
2023-03-07T02:28:35.092Z,975.82
2023-03-07T02:29:35.085Z,975.81
2023-03-07T02:30:35.081Z,975.77
2023-03-07T02:31:35.054Z,975.84
2023-03-07T02:32:35.112Z,975.74
2023-03-07T02:33:35.051Z,975.68
2023-03-07T02:34:35.045Z,975.70
2023-03-07T02:35:35.065Z,975.78
2023-03-07T02:36:35.039Z,975.79
2023-03-07T02:37:35.035Z,975.76
2023-03-07T02:38:35.009Z,975.69
2023-03-07T02:39:35.000Z,975.62
2023-03-07T02:40:36.927Z,975.62
2023-03-07T02:41:34.976Z,975.66
2023-03-07T02:42:34.982Z,975.69
2023-03-07T02:43:34.958Z,975.66
2023-03-07T02:44:34.968Z,975.65
2023-03-07T02:45:34.944Z,975.64
2023-03-07T02:46:34.981Z,975.58
2023-03-07T02:47:34.932Z,975.60
2023-03-07T02:48:35.935Z,975.59
2023-03-07T02:49:34.914Z,975.60
2023-03-07T02:50:34.912Z,975.53
2023-03-07T02:51:34.896Z,975.52
2023-03-07T02:52:34.897Z,975.55
2023-03-07T02:53:34.895Z,975.55
2023-03-07T02:54:34.874Z,975.52
2023-03-07T02:55:34.866Z,975.56
2023-03-07T02:56:34.863Z,975.53
2023-03-07T02:57:34.849Z,975.55
2023-03-07T02:58:34.843Z,975.54
2023-03-07T02:59:34.856Z,975.57
2023-03-07T03:00:34.834Z,975.55
2023-03-07T03:01:34.890Z,975.57
2023-03-07T03:02:34.826Z,975.48
2023-03-07T03:03:34.809Z,975.54
2023-03-07T03:04:34.861Z,975.50
2023-03-07T03:05:34.785Z,975.50
2023-03-07T03:06:34.797Z,975.54
2023-03-07T03:07:34.772Z,975.48
2023-03-07T03:08:34.777Z,975.44
2023-03-07T03:09:34.767Z,975.49
2023-03-07T03:10:34.754Z,975.43
2023-03-07T03:11:34.753Z,975.47
2023-03-07T03:12:34.746Z,975.41
2023-03-07T03:13:34.728Z,975.49
2023-03-07T03:14:34.733Z,975.41
2023-03-07T03:15:34.708Z,975.41
2023-03-07T03:16:34.709Z,975.43
2023-03-07T03:17:34.705Z,975.36
2023-03-07T03:18:34.687Z,975.34
2023-03-07T03:19:34.685Z,975.40
2023-03-07T03:20:34.682Z,975.35
2023-03-07T03:21:34.681Z,975.33
2023-03-07T03:22:34.664Z,975.42
2023-03-07T03:23:34.660Z,975.37
2023-03-07T03:24:34.642Z,975.31
2023-03-07T03:25:34.637Z,975.36
2023-03-07T03:26:34.641Z,975.33
2023-03-07T03:27:34.653Z,975.29
2023-03-07T03:28:34.609Z,975.34
2023-03-07T03:29:34.619Z,975.28
2023-03-07T03:30:34.587Z,975.34
2023-03-07T03:31:34.675Z,975.34
2023-03-07T03:32:34.598Z,975.32
2023-03-07T03:33:34.577Z,975.33
2023-03-07T03:34:34.574Z,975.31
2023-03-07T03:35:34.615Z,975.26
2023-03-07T03:36:34.563Z,975.33
2023-03-07T03:37:34.551Z,975.31
2023-03-07T03:38:34.551Z,975.23
2023-03-07T03:39:34.522Z,975.32
2023-03-07T03:40:34.512Z,975.27
2023-03-07T03:41:34.528Z,975.27
2023-03-07T03:42:34.519Z,975.30
2023-03-07T03:43:34.495Z,975.23
2023-03-07T03:44:34.489Z,975.20
2023-03-07T03:45:35.350Z,975.18
2023-03-07T03:46:34.520Z,975.18
2023-03-07T03:47:34.461Z,975.19
2023-03-07T03:48:34.445Z,975.20
2023-03-07T03:49:35.451Z,975.17
2023-03-07T03:50:34.436Z,975.19
2023-03-07T03:51:34.427Z,975.13
2023-03-07T03:52:35.926Z,975.20
2023-03-07T03:53:34.421Z,975.19
2023-03-07T03:54:34.400Z,975.16
2023-03-07T03:55:34.396Z,975.16
2023-03-07T03:56:34.395Z,975.12
2023-03-07T03:57:34.384Z,975.11
2023-03-07T03:58:34.366Z,975.06
2023-03-07T03:59:34.373Z,975.13
2023-03-07T04:00:34.357Z,975.10
2023-03-07T04:01:34.389Z,975.06
2023-03-07T04:02:34.431Z,975.02
2023-03-07T04:03:35.329Z,975.09
2023-03-07T04:04:34.327Z,975.04
2023-03-07T04:05:34.320Z,975.13
2023-03-07T04:06:34.307Z,975.01
2023-03-07T04:07:34.319Z,974.99
2023-03-07T04:08:34.314Z,975.00
2023-03-07T04:09:34.295Z,975.03
2023-03-07T04:10:34.279Z,974.99
2023-03-07T04:11:34.280Z,975.01
2023-03-07T04:12:34.272Z,975.00
2023-03-07T04:13:34.254Z,974.97
2023-03-07T04:14:34.247Z,975.10
2023-03-07T04:15:34.262Z,975.06
2023-03-07T04:16:34.316Z,975.01
2023-03-07T04:17:34.229Z,975.00
2023-03-07T04:18:34.232Z,974.89
2023-03-07T04:19:34.203Z,974.95
2023-03-07T04:20:34.190Z,974.87
2023-03-07T04:21:34.191Z,974.89
2023-03-07T04:22:34.196Z,974.91
2023-03-07T04:23:34.934Z,974.88
2023-03-07T04:24:34.167Z,974.94
2023-03-07T04:25:34.216Z,974.83
2023-03-07T04:26:34.158Z,974.87
2023-03-07T04:27:34.140Z,974.89
2023-03-07T04:28:34.125Z,974.89
2023-03-07T04:29:34.135Z,974.83
2023-03-07T04:30:34.926Z,974.84
2023-03-07T04:31:34.152Z,974.85
2023-03-07T04:32:34.120Z,974.90
2023-03-07T04:33:34.093Z,974.81
2023-03-07T04:34:34.088Z,974.83
2023-03-07T04:35:34.137Z,974.89
2023-03-07T04:36:34.067Z,974.88
2023-03-07T04:37:34.924Z,974.83
2023-03-07T04:38:34.052Z,974.82
2023-03-07T04:39:34.055Z,974.81
2023-03-07T04:40:34.046Z,974.81
2023-03-07T04:41:34.040Z,974.85
2023-03-07T04:42:34.034Z,974.85
2023-03-07T04:43:34.034Z,974.83
2023-03-07T04:44:34.013Z,974.81
2023-03-07T04:45:34.002Z,974.78
2023-03-07T04:46:33.994Z,974.78
2023-03-07T04:47:33.987Z,974.74
2023-03-07T04:48:33.984Z,974.76
2023-03-07T04:49:33.977Z,974.72
2023-03-07T04:50:33.977Z,974.76
2023-03-07T04:51:33.953Z,974.72
2023-03-07T04:52:33.948Z,974.77
2023-03-07T04:53:33.953Z,974.76
2023-03-07T04:54:33.934Z,974.74
2023-03-07T04:55:33.934Z,974.71
2023-03-07T04:56:33.920Z,974.73
2023-03-07T04:57:33.913Z,974.72
2023-03-07T04:58:33.939Z,974.72
2023-03-07T04:59:33.906Z,974.74
2023-03-07T05:00:33.900Z,974.71
2023-03-07T05:01:33.920Z,974.68
2023-03-07T05:02:33.866Z,974.71
2023-03-07T05:03:34.439Z,974.70
2023-03-07T05:04:33.876Z,974.71
2023-03-07T05:05:35.568Z,974.69
2023-03-07T05:06:33.852Z,974.64
2023-03-07T05:07:33.830Z,974.64
2023-03-07T05:08:35.431Z,974.67
2023-03-07T05:09:33.820Z,974.55
2023-03-07T05:10:33.830Z,974.59
2023-03-07T05:11:33.815Z,974.61
2023-03-07T05:12:33.805Z,974.60
2023-03-07T05:13:33.797Z,974.55
2023-03-07T05:14:33.808Z,974.52
2023-03-07T05:15:33.867Z,974.53
2023-03-07T05:16:33.765Z,974.47
2023-03-07T05:17:33.750Z,974.47
2023-03-07T05:18:34.412Z,974.48
2023-03-07T05:19:33.746Z,974.49
2023-03-07T05:20:33.740Z,974.46
2023-03-07T05:21:33.724Z,974.45
2023-03-07T05:22:33.719Z,974.45
2023-03-07T05:23:33.708Z,974.48
2023-03-07T05:24:33.699Z,974.45
2023-03-07T05:25:33.694Z,974.38
2023-03-07T05:26:33.690Z,974.38
2023-03-07T05:27:33.682Z,974.45
2023-03-07T05:28:33.691Z,974.41
2023-03-07T05:29:33.668Z,974.49
2023-03-07T05:30:34.369Z,974.44
2023-03-07T05:31:33.706Z,974.39
2023-03-07T05:32:33.693Z,974.43
2023-03-07T05:33:33.623Z,974.38
2023-03-07T05:34:33.636Z,974.39
2023-03-07T05:35:33.684Z,974.39
2023-03-07T05:36:33.649Z,974.41
2023-03-07T05:37:33.624Z,974.29
2023-03-07T05:38:33.606Z,974.40
2023-03-07T05:39:33.586Z,974.33
2023-03-07T05:40:33.602Z,974.35
2023-03-07T05:41:34.432Z,974.36
2023-03-07T05:42:33.565Z,974.35
2023-03-07T05:43:33.565Z,974.38
2023-03-07T05:45:42.718Z,974.35
2023-03-07T05:46:40.675Z,974.35
2023-03-07T05:47:40.664Z,974.34
2023-03-07T05:48:40.678Z,974.37
2023-03-07T05:49:41.757Z,974.36
2023-03-07T05:51:51.127Z,974.38
2023-03-07T05:52:52.224Z,974.32
2023-03-07T05:53:52.205Z,974.26
2023-03-07T05:54:52.201Z,974.31
2023-03-07T05:55:52.197Z,974.26
2023-03-07T05:56:52.208Z,974.26
2023-03-07T05:57:52.186Z,974.24
2023-03-07T05:58:52.174Z,974.26
2023-03-07T05:59:52.194Z,974.27
2023-03-07T06:00:52.170Z,974.23
2023-03-07T06:01:53.063Z,974.28
2023-03-07T06:02:52.220Z,974.24
2023-03-07T06:03:52.157Z,974.22
2023-03-07T06:04:52.145Z,974.22
2023-03-07T06:05:52.133Z,974.19
2023-03-07T06:06:52.111Z,974.17
2023-03-07T06:07:52.128Z,974.18
2023-03-07T06:08:52.107Z,974.21
2023-03-07T06:09:52.089Z,974.16
2023-03-07T06:10:52.102Z,974.15
2023-03-07T06:11:52.075Z,974.16
2023-03-07T06:12:52.066Z,974.12
2023-03-07T06:13:52.080Z,974.13
2023-03-07T06:14:52.056Z,974.16
2023-03-07T06:15:52.100Z,974.20
2023-03-07T06:16:52.035Z,974.27
2023-03-07T06:17:52.068Z,974.17
2023-03-07T06:18:52.029Z,974.20
2023-03-07T06:19:52.998Z,974.12
2023-03-07T06:20:52.000Z,974.16
2023-03-07T06:21:52.003Z,974.11
2023-03-07T06:22:52.574Z,974.11
2023-03-07T06:23:51.989Z,974.18
2023-03-07T06:24:55.490Z,974.19
2023-03-07T06:25:52.019Z,974.18
2023-03-07T06:26:52.582Z,974.21
2023-03-07T06:27:51.980Z,974.21
2023-03-07T06:28:55.514Z,974.22
2023-03-07T06:29:51.931Z,974.19
2023-03-07T06:30:51.988Z,974.22
2023-03-07T06:31:51.923Z,974.13
2023-03-07T06:32:51.925Z,974.20
2023-03-07T06:33:51.901Z,974.22
2023-03-07T06:34:51.905Z,974.17
2023-03-07T06:35:51.932Z,974.22
2023-03-07T06:36:51.892Z,974.17
2023-03-07T06:37:51.877Z,974.19
2023-03-07T06:38:51.860Z,974.17
2023-03-07T06:39:51.853Z,974.19
2023-03-07T06:40:51.837Z,974.19
2023-03-07T06:41:51.841Z,974.23
2023-03-07T06:42:51.830Z,974.23
2023-03-07T06:43:52.571Z,974.22
2023-03-07T06:44:51.810Z,974.25
2023-03-07T06:45:51.836Z,974.20
2023-03-07T06:46:51.811Z,974.21
2023-03-07T06:47:52.499Z,974.25
2023-03-07T06:48:53.496Z,974.26
2023-03-07T06:49:51.776Z,974.24
2023-03-07T06:50:51.780Z,974.24
2023-03-07T06:51:51.769Z,974.19
2023-03-07T06:52:51.766Z,974.18
2023-03-07T06:53:51.737Z,974.24
2023-03-07T06:54:51.735Z,974.27
2023-03-07T06:55:51.725Z,974.31
2023-03-07T06:56:52.578Z,974.28
2023-03-07T06:57:51.722Z,974.24
2023-03-07T06:58:51.711Z,974.28
2023-03-07T06:59:51.714Z,974.28
2023-03-07T07:00:51.685Z,974.30
2023-03-07T07:01:51.847Z,974.26
2023-03-07T07:02:51.772Z,974.24
2023-03-07T07:03:51.663Z,974.21
2023-03-07T07:04:53.579Z,974.24
2023-03-07T07:05:52.577Z,974.20
2023-03-07T07:06:51.633Z,974.23
2023-03-07T07:07:51.626Z,974.20
2023-03-07T07:08:52.507Z,974.23
2023-03-07T07:09:51.608Z,974.19
2023-03-07T07:10:51.614Z,974.28
2023-03-07T07:11:52.600Z,974.23
2023-03-07T07:12:51.587Z,974.21
2023-03-07T07:13:51.597Z,974.21
2023-03-07T07:14:51.602Z,974.30
2023-03-07T07:15:51.572Z,974.24
2023-03-07T07:16:51.602Z,974.24
2023-03-07T07:17:52.505Z,974.22
2023-03-07T07:18:51.549Z,974.22
2023-03-07T07:19:52.503Z,974.15
2023-03-07T07:20:51.538Z,974.22
2023-03-07T07:21:51.527Z,974.18
2023-03-07T07:22:53.505Z,974.23
2023-03-07T07:23:51.530Z,974.24
2023-03-07T07:24:51.515Z,974.25
2023-03-07T07:25:51.499Z,974.18
2023-03-07T07:26:51.485Z,974.25
2023-03-07T07:27:51.495Z,974.13
2023-03-07T07:28:51.469Z,974.18
2023-03-07T07:29:51.462Z,974.20
2023-03-07T07:30:51.455Z,974.14
2023-03-07T07:31:51.625Z,974.05
2023-03-07T07:32:51.512Z,974.09
2023-03-07T07:33:51.436Z,974.13
2023-03-07T07:34:51.427Z,974.11
2023-03-07T07:35:51.434Z,974.11
2023-03-07T07:36:51.463Z,974.06
2023-03-07T07:37:51.398Z,974.06
2023-03-07T07:38:51.385Z,974.10
2023-03-07T07:39:54.006Z,973.99
2023-03-07T07:40:51.379Z,974.12
2023-03-07T07:41:51.372Z,974.00
2023-03-07T07:42:51.362Z,974.05
2023-03-07T07:43:51.362Z,974.05
2023-03-07T07:44:53.011Z,974.04
2023-03-07T07:45:51.446Z,974.10
2023-03-07T07:46:54.015Z,974.08
2023-03-07T07:47:51.332Z,974.04
2023-03-07T07:48:51.315Z,974.03
2023-03-07T07:49:51.306Z,974.02
2023-03-07T07:50:51.306Z,974.04
2023-03-07T07:51:51.295Z,973.90
2023-03-07T07:52:51.289Z,973.97
2023-03-07T07:53:51.282Z,974.02
2023-03-07T07:54:51.278Z,974.03
2023-03-07T07:55:51.276Z,973.98
2023-03-07T07:56:51.253Z,974.02
2023-03-07T07:57:51.988Z,974.11
2023-03-07T07:58:51.241Z,974.10
2023-03-07T07:59:51.293Z,974.11
2023-03-07T08:00:51.265Z,974.14
2023-03-07T08:01:51.380Z,974.02
2023-03-07T08:02:51.442Z,974.05
2023-03-07T08:03:51.285Z,974.05
2023-03-07T08:04:51.184Z,974.05
2023-03-07T08:05:52.199Z,974.05
2023-03-07T08:06:51.178Z,974.05
2023-03-07T08:07:52.093Z,973.93
2023-03-07T08:08:51.187Z,973.99
2023-03-07T08:09:51.169Z,974.06
2023-03-07T08:10:51.158Z,973.97
2023-03-07T08:11:51.144Z,973.98
2023-03-07T08:12:53.093Z,974.02
2023-03-07T08:13:52.017Z,974.02
2023-03-07T08:14:52.092Z,973.94
2023-03-07T08:15:53.151Z,973.94
2023-03-07T08:16:51.101Z,973.95
2023-03-07T08:17:51.113Z,973.99
2023-03-07T08:18:53.030Z,974.01
2023-03-07T08:19:53.042Z,973.97
2023-03-07T08:20:51.075Z,973.97
2023-03-07T08:21:51.073Z,974.02
2023-03-07T08:22:51.978Z,973.96
2023-03-07T08:23:51.054Z,973.93
2023-03-07T08:24:51.049Z,973.88
2023-03-07T08:25:51.037Z,973.99
2023-03-07T08:26:51.025Z,973.97
2023-03-07T08:27:51.006Z,973.97
2023-03-07T08:28:51.007Z,973.92
2023-03-07T08:29:50.996Z,973.94
2023-03-07T08:30:51.067Z,973.92
2023-03-07T08:31:50.981Z,973.93
2023-03-07T08:32:51.593Z,973.93
2023-03-07T08:33:51.978Z,973.89
2023-03-07T08:34:50.955Z,973.86
2023-03-07T08:35:51.012Z,973.91
2023-03-07T08:36:50.939Z,973.88
2023-03-07T08:37:50.926Z,973.85
2023-03-07T08:38:50.940Z,973.90
2023-03-07T08:39:50.915Z,973.82
2023-03-07T08:40:50.920Z,973.80
2023-03-07T08:42:57.990Z,973.79
2023-03-07T08:43:57.985Z,973.79
2023-03-07T08:44:59.083Z,973.81
2023-03-07T08:46:00.700Z,973.75
2023-03-07T08:47:00.094Z,973.72
2023-03-07T08:47:59.091Z,973.76
2023-03-07T08:48:59.062Z,973.85
2023-03-07T08:49:59.047Z,973.78
2023-03-07T08:50:59.028Z,973.78
2023-03-07T08:51:59.008Z,973.73
2023-03-07T08:52:59.005Z,973.73
2023-03-07T08:53:59.004Z,973.73
2023-03-07T08:54:58.999Z,973.72
2023-03-07T08:55:59.033Z,973.70
2023-03-07T08:56:58.977Z,973.67
2023-03-07T08:57:58.999Z,973.67
2023-03-07T08:59:00.738Z,973.68
2023-03-07T09:00:00.716Z,973.66
2023-03-07T09:00:58.956Z,973.59
2023-03-07T09:01:59.014Z,973.73
2023-03-07T09:02:58.922Z,973.62
2023-03-07T09:03:58.913Z,973.65
2023-03-07T09:04:58.990Z,973.60
2023-03-07T09:05:58.906Z,973.66
2023-03-07T09:07:01.226Z,973.60
2023-03-07T09:07:58.887Z,973.64
2023-03-07T09:08:58.880Z,973.63
2023-03-07T09:09:59.640Z,973.59
2023-03-07T09:11:00.737Z,973.56
2023-03-07T09:11:58.858Z,973.63
2023-03-07T09:12:58.859Z,973.65
2023-03-07T09:13:58.847Z,973.60
2023-03-07T09:14:58.861Z,973.66
2023-03-07T09:15:58.860Z,973.71
2023-03-07T09:16:58.805Z,973.62
2023-03-07T09:17:58.819Z,973.66
2023-03-07T09:18:58.799Z,973.61
2023-03-07T09:19:58.793Z,973.57
2023-03-07T09:20:59.648Z,973.67
2023-03-07T09:21:58.767Z,973.59
2023-03-07T09:22:58.777Z,973.60
2023-03-07T09:23:58.751Z,973.60
2023-03-07T09:24:58.750Z,973.60
2023-03-07T09:25:58.745Z,973.53
2023-03-07T09:26:59.648Z,973.58
2023-03-07T09:27:58.755Z,973.50
2023-03-07T09:28:58.713Z,973.54
2023-03-07T09:29:59.714Z,973.53
2023-03-07T09:30:58.709Z,973.53
2023-03-07T09:31:58.695Z,973.54
2023-03-07T09:32:58.701Z,973.46
2023-03-07T09:33:58.695Z,973.52
2023-03-07T09:34:58.699Z,973.46
2023-03-07T09:35:58.723Z,973.39
2023-03-07T09:36:58.700Z,973.39
2023-03-07T09:37:58.660Z,973.48
2023-03-07T09:38:58.642Z,973.49
2023-03-07T09:39:58.658Z,973.46
2023-03-07T09:40:58.638Z,973.40
2023-03-07T09:41:58.634Z,973.46
2023-03-07T09:42:58.610Z,973.48
2023-03-07T09:43:58.640Z,973.52
2023-03-07T09:44:58.589Z,973.56
2023-03-07T09:46:00.257Z,973.34
2023-03-07T09:47:00.155Z,973.39
2023-03-07T09:47:58.574Z,973.41
2023-03-07T09:48:58.568Z,973.37
2023-03-07T09:49:58.579Z,973.27
2023-03-07T09:51:01.897Z,973.25
2023-03-07T09:51:59.541Z,973.31
2023-03-07T09:52:58.531Z,973.15
2023-03-07T09:53:58.706Z,973.24
2023-03-07T09:54:58.577Z,973.28
2023-03-07T09:55:58.530Z,973.31
2023-03-07T09:56:58.834Z,973.31
2023-03-07T09:57:58.855Z,973.22
2023-03-07T09:58:58.745Z,973.31
2023-03-07T09:59:59.160Z,973.24
2023-03-07T10:00:58.483Z,973.17
2023-03-07T10:01:58.480Z,973.22
2023-03-07T10:02:58.458Z,973.10
2023-03-07T10:03:58.530Z,973.04
2023-03-07T10:04:58.449Z,973.21
2023-03-07T10:05:58.449Z,973.14
2023-03-07T10:06:58.647Z,973.10
2023-03-07T10:07:58.425Z,973.19
2023-03-07T10:08:58.422Z,973.10
2023-03-07T10:09:58.403Z,973.16
2023-03-07T10:10:58.409Z,973.12
2023-03-07T10:11:58.482Z,973.05
2023-03-07T10:12:58.389Z,973.06
2023-03-07T10:13:58.416Z,972.99
2023-03-07T10:14:58.377Z,973.07
2023-03-07T10:15:58.361Z,973.04
2023-03-07T10:16:58.444Z,973.01
2023-03-07T10:17:58.349Z,973.01
2023-03-07T10:18:58.333Z,972.97
2023-03-07T10:19:58.323Z,973.03
2023-03-07T10:20:58.329Z,973.00
2023-03-07T10:21:58.343Z,973.00
2023-03-07T10:22:58.308Z,972.93
2023-03-07T10:23:58.296Z,973.00
2023-03-07T10:24:58.292Z,972.97
2023-03-07T10:25:58.299Z,972.97
2023-03-07T10:26:58.266Z,973.01
2023-03-07T10:27:58.256Z,973.05
2023-03-07T10:28:58.256Z,973.01
2023-03-07T10:29:58.258Z,972.94
2023-03-07T10:30:58.241Z,972.93
2023-03-07T10:31:58.289Z,972.93
2023-03-07T10:32:58.221Z,972.95
2023-03-07T10:33:58.267Z,972.93
2023-03-07T10:34:58.211Z,972.87
2023-03-07T10:35:58.317Z,973.00
2023-03-07T10:37:08.471Z,973.05
2023-03-07T10:38:00.186Z,973.08
2023-03-07T10:38:59.174Z,973.05
2023-03-07T10:39:58.182Z,972.90
2023-03-07T10:40:58.163Z,973.05
2023-03-07T10:41:58.746Z,973.08
2023-03-07T10:42:58.137Z,973.03
2023-03-07T10:43:59.686Z,973.03
2023-03-07T10:44:58.146Z,973.06
2023-03-07T10:45:58.167Z,973.06
2023-03-07T10:46:58.169Z,973.07
2023-03-07T10:47:58.106Z,973.03
2023-03-07T10:48:58.092Z,973.14
2023-03-07T10:49:58.098Z,972.96
2023-03-07T10:50:58.099Z,973.08
2023-03-07T10:51:58.076Z,973.14
2023-03-07T10:52:58.075Z,973.09
2023-03-07T10:53:58.055Z,973.05
2023-03-07T10:54:58.057Z,973.10
2023-03-07T10:55:58.065Z,973.05
2023-03-07T10:56:58.089Z,973.06
2023-03-07T10:57:58.020Z,973.09
2023-03-07T10:58:59.012Z,973.14
2023-03-07T10:59:58.024Z,973.13
2023-03-07T11:00:58.043Z,973.05
2023-03-07T11:01:58.025Z,973.08
2023-03-07T11:02:57.987Z,973.05
2023-03-07T11:03:58.687Z,973.12
2023-03-07T11:04:59.099Z,973.08
2023-03-07T11:05:57.985Z,973.10
2023-03-07T11:06:57.970Z,973.11
2023-03-07T11:07:58.694Z,973.10
2023-03-07T11:08:58.862Z,973.02
2023-03-07T11:09:58.673Z,973.10
2023-03-07T11:10:57.916Z,973.04
2023-03-07T11:12:00.682Z,973.09
2023-03-07T11:12:59.765Z,973.05
2023-03-07T11:13:57.991Z,973.06
2023-03-07T11:14:57.950Z,973.11
2023-03-07T11:16:10.589Z,973.07
2023-03-07T11:16:59.877Z,973.14
2023-03-07T11:17:58.762Z,973.02
2023-03-07T11:18:57.847Z,973.09
2023-03-07T11:19:57.851Z,973.04
2023-03-07T11:20:57.836Z,973.13
2023-03-07T11:21:57.835Z,973.12
2023-03-07T11:22:57.817Z,973.09
2023-03-07T11:23:57.849Z,973.06
2023-03-07T11:24:57.812Z,973.09
2023-03-07T11:25:59.658Z,973.03
2023-03-07T11:26:57.784Z,973.01
2023-03-07T11:27:57.791Z,973.04
2023-03-07T11:28:57.770Z,973.08
2023-03-07T11:29:58.746Z,973.02
2023-03-07T11:30:57.774Z,973.04
2023-03-07T11:31:58.747Z,973.02
2023-03-07T11:32:58.685Z,973.06
2023-03-07T11:33:59.539Z,973.01
2023-03-07T11:34:58.759Z,972.99
2023-03-07T11:35:57.736Z,973.05
2023-03-07T11:36:57.712Z,973.06
2023-03-07T11:37:57.755Z,973.06
2023-03-07T11:38:57.696Z,972.98
2023-03-07T11:39:57.682Z,973.00
2023-03-07T11:40:57.695Z,973.01
2023-03-07T11:41:57.669Z,973.02
2023-03-07T11:42:57.679Z,972.91
2023-03-07T11:43:57.714Z,972.98
2023-03-07T11:44:57.649Z,972.96
2023-03-07T11:45:57.644Z,972.96
2023-03-07T11:46:57.647Z,972.96
2023-03-07T11:47:57.632Z,972.93
2023-03-07T11:48:57.628Z,972.93
2023-03-07T11:49:58.755Z,972.97
2023-03-07T11:50:58.247Z,972.98
2023-03-07T11:51:57.596Z,972.91
2023-03-07T11:52:58.276Z,972.87
2023-03-07T11:53:58.278Z,972.95
2023-03-07T11:54:57.618Z,972.91
2023-03-07T11:55:57.565Z,972.84
2023-03-07T11:56:57.575Z,972.91
2023-03-07T11:57:57.557Z,972.88
2023-03-07T11:58:57.581Z,972.87
2023-03-07T11:59:57.577Z,972.86
2023-03-07T12:00:57.529Z,972.88
2023-03-07T12:01:59.249Z,972.86
2023-03-07T12:02:57.612Z,972.86
2023-03-07T12:03:58.184Z,972.88
2023-03-07T12:04:57.717Z,972.86
2023-03-07T12:05:59.233Z,972.78
2023-03-07T12:06:57.570Z,972.82
2023-03-07T12:07:57.495Z,972.77
2023-03-07T12:08:57.458Z,972.80
2023-03-07T12:09:57.453Z,972.80
2023-03-07T12:10:57.504Z,972.72
2023-03-07T12:11:57.441Z,972.71
2023-03-07T12:12:57.430Z,972.73
2023-03-07T12:13:57.428Z,972.72
2023-03-07T12:14:57.412Z,972.68
2023-03-07T12:15:57.429Z,972.66
2023-03-07T12:16:57.407Z,972.74
2023-03-07T12:17:57.423Z,972.70
2023-03-07T12:18:57.390Z,972.68
2023-03-07T12:19:57.370Z,972.68
2023-03-07T12:20:57.377Z,972.68
2023-03-07T12:21:57.360Z,972.62
2023-03-07T12:22:58.201Z,972.64
2023-03-07T12:23:57.453Z,972.68
2023-03-07T12:24:57.346Z,972.64
2023-03-07T12:25:57.726Z,972.57
2023-03-07T12:26:57.327Z,972.59
2023-03-07T12:27:57.320Z,972.66
2023-03-07T12:28:57.306Z,972.69
2023-03-07T12:29:57.300Z,972.65
2023-03-07T12:30:57.302Z,972.69
2023-03-07T12:31:57.439Z,972.65
2023-03-07T12:32:57.427Z,972.63